createdAt,value
2023-03-08T00:00:33.795Z,2049.00
2023-03-08T00:01:33.766Z,2058.00
2023-03-08T00:02:33.732Z,2056.00
2023-03-08T00:03:33.753Z,2056.00
2023-03-08T00:04:33.726Z,2053.00
2023-03-08T00:05:33.672Z,2043.00
2023-03-08T00:06:33.646Z,2054.00
2023-03-08T00:07:33.640Z,2054.00
2023-03-08T00:08:33.650Z,2058.00
2023-03-08T00:09:33.573Z,2052.00
2023-03-08T00:10:33.542Z,2051.00
2023-03-08T00:11:33.509Z,2040.00
2023-03-08T00:12:33.493Z,2044.00
2023-03-08T00:13:33.477Z,2055.00
2023-03-08T00:14:33.443Z,2045.00
2023-03-08T00:15:33.421Z,2050.00
2023-03-08T00:16:33.393Z,2039.00
2023-03-08T00:17:33.347Z,2044.00
2023-03-08T00:18:33.318Z,2049.00
2023-03-08T00:19:33.304Z,2039.00
2023-03-08T00:20:33.256Z,2052.00
2023-03-08T00:21:33.234Z,2031.00
2023-03-08T00:22:33.214Z,2034.00
2023-03-08T00:23:33.187Z,2042.00
2023-03-08T03:11:29.345Z,1874.00
2023-03-08T03:12:29.328Z,1875.00
2023-03-08T03:13:29.310Z,1873.00
2023-03-08T03:14:29.293Z,1881.00
2023-03-08T03:15:29.260Z,1870.00
2023-03-08T03:16:29.227Z,1871.00
2023-03-08T03:17:29.220Z,1868.00
2023-03-08T03:18:29.198Z,1869.00
2023-03-08T03:19:29.165Z,1870.00
2023-03-08T03:20:29.144Z,1865.00
2023-03-08T03:21:29.131Z,1863.00
2023-03-08T03:22:29.106Z,1858.00
2023-03-08T03:23:29.084Z,1859.00
2023-03-08T03:24:29.065Z,1864.00
2023-03-08T03:25:29.063Z,1852.00
2023-03-08T03:26:29.033Z,1855.00
2023-03-08T03:27:29.003Z,1862.00
2023-03-08T03:28:28.992Z,1851.00
2023-03-08T03:29:28.979Z,1858.00
2023-03-08T03:30:28.959Z,1857.00
2023-03-08T03:31:29.017Z,1849.00
2023-03-08T03:32:28.932Z,1852.00
2023-03-08T03:33:28.899Z,1854.00
2023-03-08T03:34:28.870Z,1849.00
2023-03-08T03:35:28.841Z,1854.00
2023-03-08T03:36:28.856Z,1848.00
2023-03-08T03:37:28.808Z,1845.00
2023-03-08T03:38:28.790Z,1844.00
2023-03-08T03:39:28.815Z,1846.00
2023-03-08T03:40:28.738Z,1850.00
2023-03-08T03:41:28.716Z,1842.00
2023-03-08T03:42:28.691Z,1845.00
2023-03-08T03:43:28.682Z,1847.00
2023-03-08T03:44:28.675Z,1845.00
2023-03-08T03:45:28.625Z,1837.00
2023-03-08T03:46:28.689Z,1831.00
2023-03-08T03:47:28.585Z,1835.00
2023-03-08T03:48:28.560Z,1834.00
2023-03-08T03:49:28.530Z,1831.00
2023-03-08T03:50:28.518Z,1830.00
2023-03-08T03:51:28.504Z,1842.00
2023-03-08T03:52:28.476Z,1832.00
2023-03-08T03:53:28.467Z,1833.00
2023-03-08T03:54:28.468Z,1825.00
2023-03-08T03:55:28.405Z,1823.00
2023-03-08T03:56:28.396Z,1833.00
2023-03-08T03:57:28.377Z,1832.00
2023-03-08T03:58:28.342Z,1832.00
2023-03-08T03:59:28.336Z,1826.00
2023-03-08T04:00:28.303Z,1817.00
2023-03-08T04:01:28.294Z,1819.00
2023-03-08T04:02:28.270Z,1823.00
2023-03-08T04:03:28.316Z,1822.00
2023-03-08T04:04:28.220Z,1811.00
2023-03-08T04:05:28.208Z,1817.00
2023-03-08T04:06:28.180Z,1814.00
2023-03-08T04:07:28.150Z,1816.00
2023-03-08T04:08:28.146Z,1810.00
2023-03-08T04:09:28.111Z,1810.00
2023-03-08T04:10:28.083Z,1808.00
2023-03-08T04:11:28.057Z,1807.00
2023-03-08T04:12:28.023Z,1805.00
2023-03-08T08:53:28.083Z,868.00
2023-03-08T08:54:28.156Z,860.00
2023-03-08T08:55:28.058Z,861.00
2023-03-08T08:56:28.636Z,864.00
2023-03-08T11:15:24.306Z,1673.00
2023-03-08T11:16:24.275Z,1713.00
2023-03-08T11:17:24.210Z,1686.00
2023-03-08T11:18:24.164Z,1605.00
2023-03-08T11:19:24.146Z,1672.00
2023-03-08T11:20:24.114Z,1598.00
2023-03-08T11:21:24.084Z,1613.00
2023-03-08T11:22:24.042Z,1575.00
2023-03-08T11:23:24.009Z,1612.00
2023-03-08T11:24:23.972Z,1578.00
2023-03-08T11:25:23.953Z,1561.00
2023-03-08T11:26:23.903Z,1606.00
2023-03-08T11:27:23.875Z,1584.00
2023-03-08T11:28:23.862Z,1583.00
2023-03-08T11:29:23.818Z,1593.00
2023-03-08T11:30:23.792Z,1533.00
2023-03-08T11:31:23.780Z,1567.00
2023-03-08T11:32:23.844Z,1507.00
2023-03-08T11:33:23.907Z,1572.00
2023-03-08T11:34:23.648Z,1634.00
2023-03-08T11:35:23.603Z,1655.00
2023-03-08T11:36:23.565Z,1713.00
2023-03-08T11:37:23.528Z,1646.00
2023-03-08T11:38:23.499Z,1718.00
2023-03-08T11:39:23.485Z,1770.00
2023-03-08T11:40:23.448Z,1777.00
2023-03-08T11:41:23.395Z,1775.00
2023-03-08T11:42:23.364Z,1735.00
2023-03-08T11:43:23.357Z,1564.00
2023-03-08T11:44:23.302Z,1632.00
2023-03-08T11:45:23.311Z,1655.00
2023-03-08T11:46:23.284Z,1673.00
2023-03-08T11:47:23.206Z,1654.00
2023-03-08T11:48:23.200Z,1540.00
2023-03-08T11:49:23.145Z,1518.00
2023-03-08T11:50:23.109Z,1579.00
2023-03-08T11:51:23.081Z,1513.00
2023-03-08T11:52:23.040Z,1539.00
2023-03-08T11:53:23.012Z,1609.00
2023-03-08T11:54:22.976Z,1632.00
2023-03-08T11:55:22.999Z,1653.00
2023-03-08T11:56:22.909Z,1645.00
2023-03-08T11:57:22.867Z,1645.00
2023-03-08T11:58:22.820Z,1656.00
2023-03-08T11:59:22.782Z,1630.00
2023-03-08T12:00:22.743Z,1589.00
2023-03-08T12:01:22.711Z,1554.00
2023-03-08T12:02:22.679Z,1529.00
2023-03-08T12:03:22.651Z,1512.00
2023-03-08T12:04:22.691Z,1470.00
2023-03-08T12:05:22.657Z,1496.00
2023-03-08T12:06:28.730Z,1577.00
2023-03-08T12:07:23.667Z,1578.00
2023-03-08T12:08:22.541Z,1575.00
2023-03-08T12:09:22.451Z,1564.00
2023-03-08T12:10:22.487Z,1497.00
2023-03-08T12:11:22.391Z,1492.00
2023-03-08T12:12:22.357Z,1575.00
2023-03-08T12:13:22.589Z,1536.00
2023-03-08T12:14:22.286Z,1527.00
2023-03-08T12:15:22.319Z,1535.00
2023-03-08T12:16:22.325Z,1467.00
2023-03-08T12:17:22.302Z,1531.00
2023-03-08T12:18:22.214Z,1529.00
2023-03-08T12:19:22.140Z,1545.00
2023-03-08T12:20:22.095Z,1550.00
2023-03-08T12:21:22.080Z,1601.00
2023-03-08T12:22:22.038Z,1643.00
2023-03-08T12:23:22.017Z,1541.00
2023-03-08T12:24:22.007Z,1412.00
2023-03-08T12:25:21.944Z,1415.00
2023-03-08T12:26:21.948Z,1416.00
2023-03-08T12:27:21.868Z,1351.00
2023-03-08T12:28:21.843Z,1302.00
2023-03-08T12:29:23.528Z,1371.00
2023-03-08T12:30:21.776Z,1427.00
2023-03-08T12:31:29.127Z,1367.00
2023-03-08T12:32:23.031Z,1367.00
2023-03-08T12:33:21.738Z,1371.00
2023-03-08T12:34:21.656Z,1371.00
2023-03-08T12:35:21.658Z,1415.00
2023-03-08T12:37:21.605Z,1457.00
2023-03-08T12:38:21.602Z,1450.00
2023-03-08T12:39:21.509Z,1425.00
2023-03-08T12:40:21.494Z,1407.00
2023-03-08T12:41:21.470Z,1388.00
2023-03-08T12:42:21.406Z,1424.00
2023-03-08T12:43:21.356Z,1455.00
2023-03-08T12:44:21.320Z,1224.00
2023-03-08T12:45:21.281Z,1117.00
2023-03-08T12:46:21.357Z,1046.00
2023-03-08T12:47:21.224Z,970.00
2023-03-08T12:48:21.196Z,1090.00
2023-03-08T12:49:21.171Z,1214.00
2023-03-08T12:50:21.169Z,1282.00
2023-03-08T12:51:21.115Z,1191.00
2023-03-08T12:52:21.128Z,1326.00
2023-03-08T12:53:20.997Z,1415.00
2023-03-08T12:54:20.960Z,1479.00
2023-03-08T12:55:20.938Z,1516.00
2023-03-08T12:56:20.926Z,1496.00
2023-03-08T12:57:20.866Z,1564.00
2023-03-08T12:58:20.831Z,1551.00
2023-03-08T12:59:20.797Z,1605.00
2023-03-08T13:00:20.802Z,1646.00
2023-03-08T13:01:20.750Z,1672.00
2023-03-08T13:02:20.690Z,1621.00
2023-03-08T13:03:20.647Z,1623.00
2023-03-08T13:04:33.599Z,1634.00
2023-03-08T13:05:21.599Z,1625.00
2023-03-08T13:06:20.548Z,1614.00
2023-03-08T13:07:20.515Z,1618.00
2023-03-08T13:08:20.480Z,1648.00
2023-03-08T13:09:20.421Z,1729.00
2023-03-08T13:10:20.408Z,1810.00
2023-03-08T13:15:20.189Z,1827.00
2023-03-08T13:17:20.123Z,1817.00
2023-03-08T13:18:20.089Z,1736.00
2023-03-08T13:19:20.088Z,1764.00
2023-03-08T13:20:20.040Z,1826.00
2023-03-08T13:21:19.979Z,1868.00
2023-03-08T13:22:19.937Z,1870.00
2023-03-08T13:23:19.913Z,1879.00
2023-03-08T13:24:19.864Z,1898.00
2023-03-08T13:25:20.001Z,1920.00
2023-03-08T13:26:19.822Z,2001.00
2023-03-08T13:27:19.788Z,1986.00
2023-03-08T13:28:19.778Z,2019.00
2023-03-08T13:29:19.729Z,1975.00
2023-03-08T13:30:19.728Z,2022.00
2023-03-08T13:31:19.714Z,2053.00
2023-03-08T13:32:19.644Z,2075.00
2023-03-08T13:33:19.538Z,2091.00
2023-03-08T13:34:19.506Z,2092.00
2023-03-08T13:35:19.472Z,2101.00
2023-03-08T13:36:19.447Z,2112.00
2023-03-08T13:37:19.411Z,2107.00
2023-03-08T13:38:19.372Z,2032.00
2023-03-08T13:39:19.354Z,1930.00
2023-03-08T13:40:19.301Z,1978.00
2023-03-08T13:41:19.245Z,1968.00
2023-03-08T13:42:19.235Z,1999.00
2023-03-08T13:43:19.177Z,2049.00
2023-03-08T13:44:19.170Z,2126.00
2023-03-08T13:45:19.108Z,2166.00
2023-03-08T13:46:19.093Z,2240.00
2023-03-08T13:47:19.045Z,2360.00
2023-03-08T13:48:19.008Z,2455.00
2023-03-08T13:57:18.750Z,2841.00
2023-03-08T13:58:18.692Z,2813.00
2023-03-08T13:59:18.689Z,2833.00
2023-03-08T14:00:18.701Z,2838.00
2023-03-08T14:01:18.589Z,2899.00
2023-03-08T14:02:18.496Z,2942.00
2023-03-08T14:03:18.481Z,2943.00
2023-03-08T14:04:18.516Z,2975.00
2023-03-08T14:05:18.390Z,3000.00
2023-03-08T14:06:18.382Z,3049.00
2023-03-08T14:07:18.323Z,3087.00
2023-03-08T14:08:18.291Z,3125.00
2023-03-08T14:09:18.273Z,3167.00
2023-03-08T14:10:18.226Z,3179.00
2023-03-08T14:11:18.200Z,3158.00
2023-03-08T14:12:18.210Z,3125.00
2023-03-08T14:13:18.187Z,3073.00
2023-03-08T14:14:18.166Z,3077.00
2023-03-08T14:15:18.198Z,3055.00
2023-03-08T14:16:18.152Z,3023.00
2023-03-08T14:17:18.081Z,3036.00
2023-03-08T17:28:11.274Z,2463.00
2023-03-08T17:30:11.225Z,2477.00
2023-03-08T17:31:11.265Z,2468.00
2023-03-08T17:32:11.174Z,2475.00
2023-03-08T17:33:11.128Z,2471.00
2023-03-08T17:34:11.115Z,2462.00
2023-03-08T17:35:11.064Z,2462.00
2023-03-08T17:36:11.163Z,2467.00
2023-03-08T17:37:10.993Z,2461.00
2023-03-08T17:38:10.957Z,2460.00
2023-03-08T17:39:10.931Z,2459.00
2023-03-08T17:40:10.901Z,2444.00
2023-03-08T17:41:10.879Z,2468.00
2023-03-08T17:42:10.839Z,2463.00
2023-03-08T17:43:10.805Z,2464.00
2023-03-08T17:45:10.742Z,2464.00
2023-03-08T17:47:10.697Z,2425.00
2023-03-08T17:48:10.662Z,2439.00
2023-03-08T17:49:10.679Z,2441.00
2023-03-08T17:50:10.578Z,2424.00
2023-03-08T17:51:10.586Z,2426.00
2023-03-08T17:52:10.518Z,2446.00
2023-03-08T17:53:10.509Z,2441.00
2023-03-08T17:54:10.543Z,2424.00
2023-03-08T17:55:10.438Z,2434.00
2023-03-08T17:56:10.420Z,2441.00
2023-03-08T17:57:10.392Z,2440.00
2023-03-08T17:58:10.352Z,2427.00
2023-03-08T17:59:10.327Z,2423.00
2023-03-08T18:00:10.303Z,2425.00
2023-03-08T18:01:10.286Z,2422.00
2023-03-08T18:02:10.281Z,2426.00
2023-03-08T18:03:10.224Z,2432.00
2023-03-08T18:04:10.263Z,2422.00
2023-03-08T18:05:10.164Z,2426.00
2023-03-08T18:06:10.141Z,2412.00
2023-03-08T18:07:10.114Z,2354.00
2023-03-08T18:08:10.079Z,2366.00
2023-03-08T18:09:10.075Z,2383.00
2023-03-08T18:10:10.028Z,2344.00
2023-03-08T18:11:09.989Z,2369.00
2023-03-08T18:12:09.958Z,2385.00
2023-03-08T18:13:09.926Z,2381.00
2023-03-08T18:14:09.892Z,2366.00
2023-03-08T18:15:09.875Z,2354.00
2023-03-08T18:16:09.859Z,2343.00
2023-03-08T18:17:09.821Z,2364.00
2023-03-08T18:18:09.788Z,2362.00
2023-03-08T18:19:09.759Z,2373.00
2023-03-08T18:20:09.741Z,2375.00
2023-03-08T18:23:09.659Z,2349.00
2023-03-08T18:24:09.621Z,2337.00
2023-03-08T18:25:09.588Z,2342.00
2023-03-08T18:26:09.558Z,2326.00
2023-03-08T18:27:09.525Z,2327.00
2023-03-08T18:28:09.487Z,2301.00
2023-03-08T18:29:09.482Z,2331.00
2023-03-08T18:30:09.427Z,2345.00
2023-03-08T18:31:09.513Z,2331.00
2023-03-08T18:32:09.400Z,2331.00
2023-03-08T18:33:09.366Z,2342.00
2023-03-08T18:34:09.316Z,2308.00
2023-03-08T18:35:09.292Z,2285.00
2023-03-08T18:36:09.277Z,2307.00
2023-03-08T18:37:09.265Z,2314.00
2023-03-08T18:38:09.238Z,2331.00
2023-03-08T18:39:09.210Z,2303.00
2023-03-08T18:40:09.175Z,2278.00
2023-03-08T18:41:09.150Z,2278.00
2023-03-08T18:42:09.109Z,2287.00
2023-03-08T18:43:09.085Z,2193.00
2023-03-08T18:44:09.056Z,2248.00
2023-03-08T18:45:09.045Z,2266.00
2023-03-08T18:46:09.047Z,2232.00
2023-03-08T18:47:08.990Z,2234.00
2023-03-08T18:48:08.946Z,2236.00
2023-03-08T18:49:08.927Z,2246.00
2023-03-08T18:50:08.899Z,2232.00
2023-03-08T18:51:08.880Z,2257.00
2023-03-08T18:52:08.853Z,2253.00
2023-03-08T18:53:08.851Z,2229.00
2023-03-08T18:54:08.787Z,2250.00
2023-03-08T18:55:08.759Z,2255.00
2023-03-08T18:56:08.727Z,2275.00
2023-03-08T18:57:08.722Z,2261.00
2023-03-08T18:58:08.659Z,2264.00
2023-03-08T18:59:08.642Z,2267.00
2023-03-08T19:00:08.623Z,2251.00
2023-03-08T19:01:08.651Z,2242.00
2023-03-08T19:02:08.599Z,2244.00
2023-03-08T19:03:08.545Z,2250.00
2023-03-08T19:04:08.507Z,2251.00
2023-03-08T19:05:08.499Z,2241.00
2023-03-08T19:06:08.456Z,2226.00
2023-03-08T19:07:08.460Z,2181.00
2023-03-08T19:08:08.411Z,2202.00
2023-03-08T19:09:08.375Z,2228.00
2023-03-08T19:10:08.338Z,2251.00
2023-03-08T19:11:08.312Z,2239.00
2023-03-08T19:12:08.286Z,2226.00
2023-03-08T19:13:08.283Z,2138.00
2023-03-08T19:14:08.249Z,2198.00
2023-03-08T19:15:08.234Z,2215.00
2023-03-08T19:16:08.230Z,2223.00
2023-03-08T19:17:08.180Z,2183.00
2023-03-08T19:18:08.163Z,2188.00
2023-03-08T19:19:08.149Z,2205.00
2023-03-08T19:20:08.118Z,2212.00
2023-03-08T19:21:08.152Z,2190.00
2023-03-08T19:22:08.080Z,2211.00
2023-03-08T19:23:08.056Z,2179.00
2023-03-08T19:24:08.021Z,2196.00
2023-03-08T19:25:07.990Z,2221.00
2023-03-08T19:26:07.972Z,2215.00
2023-03-08T19:27:07.954Z,2219.00
2023-03-08T19:28:07.930Z,2216.00
2023-03-08T19:29:07.902Z,2219.00
2023-03-08T19:30:07.873Z,2186.00
2023-03-08T19:31:07.912Z,2173.00
2023-03-08T19:32:07.926Z,2206.00
2023-03-08T19:33:07.804Z,2135.00
2023-03-08T19:34:07.801Z,2151.00
2023-03-08T19:35:07.756Z,2173.00
2023-03-08T19:36:07.788Z,2177.00
2023-03-08T19:37:07.705Z,2175.00
2023-03-08T19:38:07.681Z,2154.00
2023-03-08T19:39:07.751Z,2138.00
2023-03-08T19:40:07.618Z,2119.00
2023-03-08T19:41:07.587Z,2133.00
2023-03-08T19:42:07.606Z,2156.00
2023-03-08T19:43:07.543Z,2174.00
2023-03-08T19:44:07.507Z,2158.00
2023-03-08T19:45:07.483Z,2160.00
2023-03-08T19:46:07.504Z,2172.00
2023-03-08T19:47:07.412Z,2160.00
2023-03-08T19:48:07.396Z,2160.00
2023-03-08T19:49:07.370Z,2150.00
2023-03-08T19:50:07.349Z,2106.00
2023-03-08T19:51:07.317Z,2103.00
2023-03-08T19:52:07.298Z,2123.00
2023-03-08T19:53:07.273Z,2124.00
2023-03-08T19:54:07.297Z,2107.00
2023-03-08T19:55:07.233Z,2130.00
2023-03-08T19:56:07.207Z,2118.00
2023-03-08T19:57:07.184Z,2141.00
2023-03-08T19:58:07.171Z,2140.00
2023-03-08T19:59:07.131Z,2133.00
2023-03-08T20:00:07.107Z,2137.00
2023-03-08T20:01:07.107Z,2129.00
2023-03-08T20:02:07.049Z,2141.00
2023-03-08T20:03:07.013Z,2138.00
2023-03-08T20:04:06.994Z,2123.00
2023-03-08T20:05:06.976Z,2109.00
2023-03-08T20:06:06.927Z,2105.00
2023-03-08T20:07:06.908Z,2133.00
2023-03-08T20:08:06.862Z,2124.00
2023-03-08T20:09:06.859Z,2126.00
2023-03-08T20:10:15.857Z,2109.00
2023-03-08T20:11:07.778Z,2110.00
2023-03-08T20:12:06.751Z,2111.00
2023-03-08T20:13:06.731Z,2111.00
2023-03-08T20:14:06.712Z,2120.00
2023-03-08T20:15:06.663Z,2122.00
2023-03-08T20:16:06.628Z,2120.00
2023-03-08T20:17:06.622Z,2121.00
2023-03-08T20:18:06.581Z,2078.00
2023-03-08T20:19:06.587Z,2072.00
2023-03-08T20:20:06.522Z,2103.00
2023-03-08T20:21:06.536Z,2067.00
2023-03-08T20:22:06.490Z,2063.00
2023-03-08T20:23:06.462Z,2075.00
2023-03-08T20:24:06.427Z,2091.00
2023-03-08T20:25:06.414Z,2083.00
2023-03-08T20:26:06.388Z,2082.00
2023-03-08T20:27:06.358Z,2090.00
2023-03-08T20:28:06.340Z,2100.00
2023-03-08T20:29:06.325Z,2086.00
2023-03-08T20:30:06.294Z,2087.00
2023-03-08T20:31:06.342Z,2088.00
2023-03-08T20:32:06.292Z,2092.00
2023-03-08T20:33:06.221Z,2094.00
2023-03-08T20:34:06.203Z,2098.00
2023-03-08T20:35:06.176Z,2091.00
2023-03-08T20:36:06.214Z,2087.00
2023-03-08T20:37:06.107Z,2092.00
2023-03-08T20:38:06.117Z,2089.00
2023-03-08T20:39:06.063Z,2081.00
2023-03-08T20:40:06.047Z,2077.00
2023-03-08T20:41:05.996Z,2084.00
2023-03-08T20:42:05.966Z,2090.00
2023-03-08T20:43:05.934Z,2085.00
2023-03-08T20:44:05.920Z,2065.00
2023-03-08T20:45:05.877Z,2090.00
2023-03-08T20:46:05.984Z,2079.00
2023-03-08T20:47:05.821Z,2068.00
2023-03-08T20:48:05.809Z,2071.00
2023-03-08T20:49:05.780Z,2081.00
2023-03-08T20:50:05.747Z,2061.00
2023-03-08T20:51:05.712Z,2075.00
2023-03-08T20:52:05.680Z,2056.00
2023-03-08T20:53:05.656Z,2053.00
2023-03-08T20:54:05.667Z,2071.00
2023-03-08T20:55:05.595Z,2070.00
2023-03-08T20:56:05.579Z,2061.00
2023-03-08T20:57:05.534Z,2056.00
2023-03-08T20:58:05.528Z,2053.00
2023-03-08T20:59:05.483Z,2058.00
2023-03-08T21:00:05.466Z,2057.00
2023-03-08T21:01:05.448Z,2052.00
2023-03-08T21:02:05.393Z,2058.00
2023-03-08T21:03:05.377Z,2058.00
2023-03-08T21:04:05.335Z,2049.00
2023-03-08T21:05:05.309Z,2052.00
2023-03-08T21:06:05.286Z,2053.00
2023-03-08T21:07:05.245Z,2042.00
2023-03-08T21:08:05.212Z,2047.00
2023-03-08T21:09:05.195Z,2043.00
2023-03-08T21:10:05.168Z,2044.00
2023-03-08T21:11:05.137Z,2052.00
2023-03-08T21:12:05.113Z,2038.00
2023-03-08T21:13:05.076Z,2022.00
2023-03-08T21:14:05.070Z,2038.00
2023-03-08T21:15:05.209Z,2028.00
2023-03-08T21:16:05.048Z,2000.00
2023-03-08T21:17:04.981Z,1900.00
2023-03-08T21:18:04.948Z,1917.00
2023-03-08T21:19:04.946Z,1968.00
2023-03-08T21:20:04.908Z,1949.00
2023-03-08T21:21:04.881Z,1980.00
2023-03-08T21:22:04.860Z,1988.00
2023-03-08T21:23:04.826Z,2007.00
2023-03-08T21:24:04.831Z,1998.00
2023-03-08T21:25:04.778Z,1995.00
2023-03-08T21:26:04.764Z,1987.00
2023-03-08T21:27:04.724Z,1935.00
2023-03-08T21:28:04.740Z,1960.00
2023-03-08T21:29:04.742Z,1967.00
2023-03-08T21:30:04.732Z,1974.00
2023-03-08T21:31:04.726Z,1973.00
2023-03-08T21:32:04.656Z,1966.00
2023-03-08T21:33:04.629Z,1962.00
2023-03-08T21:34:04.619Z,1945.00
2023-03-08T21:35:04.626Z,1898.00
2023-03-08T21:36:04.672Z,1846.00
2023-03-08T21:37:04.557Z,1849.00
2023-03-08T21:38:04.558Z,1890.00
2023-03-08T21:39:04.515Z,1873.00
2023-03-08T21:40:04.504Z,1854.00
2023-03-08T21:41:04.479Z,1819.00
2023-03-08T21:42:04.464Z,1828.00
2023-03-08T21:43:04.436Z,1872.00
2023-03-08T21:44:04.423Z,1882.00
2023-03-08T21:45:04.407Z,1882.00
2023-03-08T21:46:04.413Z,1895.00
2023-03-08T21:47:04.371Z,1900.00
2023-03-08T21:48:04.367Z,1886.00
2023-03-08T21:49:04.336Z,1872.00
2023-03-08T21:50:04.316Z,1820.00
2023-03-08T21:51:04.286Z,1837.00
2023-03-08T21:52:04.276Z,1863.00
2023-03-08T21:53:04.253Z,1865.00
2023-03-08T21:54:04.233Z,1804.00
2023-03-08T21:55:04.223Z,1845.00
2023-03-08T21:56:04.185Z,1825.00
2023-03-08T21:57:04.165Z,1835.00
2023-03-08T21:58:04.146Z,1830.00
2023-03-08T21:59:04.119Z,1830.00
2023-03-08T22:00:04.122Z,1813.00
2023-03-08T22:01:04.085Z,1786.00
2023-03-08T22:02:04.161Z,1818.00
2023-03-08T22:03:04.128Z,1751.00
2023-03-08T22:04:04.010Z,1787.00
2023-03-08T22:05:03.987Z,1783.00
2023-03-08T22:06:03.985Z,1829.00
2023-03-08T22:07:03.935Z,1831.00
2023-03-08T22:08:03.911Z,1824.00
2023-03-08T22:09:03.894Z,1802.00
2023-03-08T22:10:03.863Z,1830.00
2023-03-08T22:11:03.843Z,1816.00
2023-03-08T22:12:03.813Z,1840.00
2023-03-08T22:13:03.802Z,1824.00
2023-03-08T22:14:03.769Z,1746.00
2023-03-08T22:15:03.743Z,1766.00
2023-03-08T22:16:03.781Z,1794.00
2023-03-08T22:17:03.706Z,1757.00
2023-03-08T22:18:03.674Z,1755.00
2023-03-08T22:19:03.662Z,1771.00
2023-03-08T22:20:03.635Z,1792.00
2023-03-08T22:21:03.607Z,1770.00
2023-03-08T22:22:03.579Z,1736.00
2023-03-08T22:23:03.543Z,1725.00
2023-03-08T22:24:03.541Z,1735.00
2023-03-08T22:25:03.495Z,1741.00
2023-03-08T22:26:03.480Z,1762.00
2023-03-08T22:27:03.449Z,1754.00
2023-03-08T22:28:03.421Z,1768.00
2023-03-08T22:29:03.385Z,1729.00
2023-03-08T22:30:03.369Z,1749.00
2023-03-08T22:31:03.434Z,1754.00
2023-03-08T22:32:03.321Z,1718.00
2023-03-08T22:33:03.302Z,1742.00
2023-03-08T22:34:03.297Z,1767.00
2023-03-08T22:35:03.277Z,1739.00
2023-03-08T22:36:03.342Z,1701.00
2023-03-08T22:37:03.247Z,1741.00
2023-03-08T22:38:03.249Z,1698.00
2023-03-08T22:39:03.211Z,1744.00
2023-03-08T22:40:03.183Z,1705.00
2023-03-08T22:41:03.193Z,1676.00
2023-03-08T22:42:03.225Z,1705.00
2023-03-08T22:43:03.130Z,1726.00
2023-03-08T22:44:03.111Z,1735.00
2023-03-08T22:45:03.085Z,1717.00
2023-03-08T22:46:03.092Z,1668.00
2023-03-08T22:47:03.053Z,1722.00
2023-03-08T22:48:03.036Z,1737.00
2023-03-08T22:49:03.005Z,1629.00
2023-03-08T22:50:02.986Z,1679.00
2023-03-08T22:51:10.651Z,1727.00
2023-03-08T22:52:03.949Z,1728.00
2023-03-08T22:53:02.918Z,1733.00
2023-03-08T22:54:02.913Z,1701.00
2023-03-08T22:55:02.891Z,1664.00
2023-03-08T22:56:02.877Z,1717.00
2023-03-08T22:57:02.853Z,1721.00
2023-03-08T22:58:02.833Z,1704.00
2023-03-08T22:59:02.830Z,1731.00
2023-03-08T23:00:02.797Z,1756.00
2023-03-08T23:01:02.799Z,1759.00
2023-03-08T23:02:02.767Z,1654.00
2023-03-08T23:03:02.763Z,1644.00
2023-03-08T23:04:02.754Z,1690.00
2023-03-08T23:05:02.729Z,1635.00
2023-03-08T23:06:02.709Z,1703.00
2023-03-08T23:43:01.904Z,1679.00
2023-03-08T23:44:01.909Z,1619.00
2023-03-08T23:45:01.843Z,1667.00
2023-03-08T23:46:01.832Z,1676.00
2023-03-08T23:47:01.777Z,1683.00
2023-03-08T23:48:03.386Z,1641.00
2023-03-08T23:49:01.742Z,1681.00
2023-03-08T23:50:01.693Z,1653.00
2023-03-08T23:51:01.649Z,1654.00
2023-03-08T23:52:01.630Z,1632.00
2023-03-08T23:53:01.609Z,1637.00
2023-03-08T23:54:01.583Z,1654.00
2023-03-08T23:55:01.540Z,1668.00
2023-03-08T23:56:01.529Z,1674.00
2023-03-08T23:57:01.488Z,1635.00
2023-03-08T23:58:01.434Z,1651.00
2023-03-08T23:59:01.421Z,1662.00
